Rochester, MA

9:28 PM EDT on August 30, 2014 (GMT -0400)
Cape Cod Coast Guard Air Station | Change Station
CLOSE
Current Station
Airport
Location: Cape Cod CGAS,
Elevation: 131 ft
Nearby Weather Stations

Elev 131 ft 41.66 °N, 70.52 °W | Updated 13 minutes ago

Mostly Cloudy
Mostly Cloudy
66 °F
Feels Like 66 °F
N
9
Wind Variable Wind from South

Today
High -- | Low -- °F
--% Chance of Precip.
Yesterday
High -- | Low -- °F
Precip. -- in
6:07 AM 7:20 PM
Waxing Crescent, 26% visible
Pressure 30.20 in
Visibility 10.0 miles
Clouds Mostly Cloudy 2300 ft
Dew Point 63 °F
Humidity 88%
Rainfall 0.00 in
Snow Depth Not available.
UV 0 out of 12
Pollen 7.00 out of 12
Ozone Good
PM2.5 Good
Flu Activity Not available.
METAR KFMH 310115Z AUTO 19008KT 10SM BKN023 19/17 A3020 RMK AO2

More Conditions Fewer Conditions

Pressure 30.20 in
Visibility 10.0 miles
Clouds Mostly Cloudy 2300 ft
Dew Point 63 °F
Humidity 88%
Rainfall 0.00 in
Snow Depth Not available.
UV 0 out of 12
Pollen 7.00 out of 12
Ozone Good
PM2.5 Good
Flu Activity Not available.
METAR KFMH 310115Z AUTO 19008KT 10SM BKN023 19/17 A3020 RMK AO2

More Conditions Fewer Conditions

10-Day Weather Forecast

Almanac

Astronomy

Aug. 30, 2014 Rise Set
Actual Time 6:07 AM EDT 7:20 PM EDT
Civil Twilight 5:38 AM EDT 7:48 PM EDT
Nautical Twilight 5:03 AM EDT 8:23 PM EDT
Astronomical Twilight 4:27 AM EDT 8:59 PM EDT
Moon 10:56 AM EDT (8/30) 9:47 PM EDT (8/30)
Length of Visible Light 14h 10m
Length of Day
13h 12m
Tomorrow will be 2m 40s shorter.
Waxing Crescent, 26% of the Moon is Illuminated
Today
Waxing Crescent
Sep 2
First Quarter
Sep 8
Full
Sep 15
Last Quarter
Sep 24
New

Today's Extremes

State Highs State Lows

Community

WunderPhotos

Upload Photos

1,748,710 photos uploaded!

Nearby

Air Quality

  Air Quality AQ Index Pollutant
Yesterday Good
PM2.5
Yesterday Good
OZONE
Current Good
PM2.5
Current Good
OZONE
Saturday Good
PM2.5
Saturday Good
OZONE
Sunday Good
PM2.5
Sunday Good
OZONE
Monday Moderate
PM2.5
Monday Good
OZONE
Tuesday Moderate
PM2.5
Tuesday Moderate
OZONE

Snow Depth

Station Depth Elevation
No new snow has been reported.

Earthquake Activity

City Distance Mag. Time & Date
No recent earthquake activity has been reported nearby.
Minimum magnitude displayed is 2.5.

Coastal Water Temperatures

Place Temperature
Woods Hole, MA 71.1 °F
Fall River, MA 73.0 °F
Newport, RI 69.1 °F

Nearby Weather Stations